ESNU/UME METAR and TAF weather

Enter ICAO airport designator
Station Type Date Time Source
ESNU METAR 2019/04/26 03:50 UTC NOAA

ESNU 260350Z AUTO 31003KT 9999 NCD 03/M02 Q1022 R14/09//95


Station Type Date Time Source
ESNU Decoded METAR 2019/04/26 03:50 UTC NOAA

Umea Flygplats, Sweden (ESNU) 63-48N 020-17E 14M
Apr 25, 2019 - 11:50 PM EDT / 2019.04.26 0350 UTC
Wind: from the NW (310 degrees) at 3 MPH (3 KT):0
Visibility: greater than 7 mile(s):0
Temperature: 37 F (3 C)
Dew Point: 28 F (-2 C)
Relative Humidity: 69%
Pressure (altimeter): 30.18 in. Hg (1022 hPa)
ob: ESNU 260350Z AUTO 31003KT 9999 NCD 03/M02 Q1022 R14/09//95
cycle: 4

Station Type Date Time Source
ESNU TAF 2019/01/04 00:39 UTC NOAA

TAF TAF ESNU 042330Z 0500/0524 34002KT CAVOK PROB40 0500/0503 BKN008

Example: see airport list